ěÝzenÝ letovÚho provozu ╚eskÚ republiky
Letiste: LKKB Aktualizace: 17.04.2021 20:27:25  UTC
 METAR LKKB 17.04. 20:30 ...
METAR LKKB 172030Z 24002KT 9999 OVC027 04/01 Q1020 RMK BLU=
 TAF LKKB 17.04. 17:00 ...
TAF LKKB 171700Z 1718/1818 29005KT 9999 BKN018      TEMPO 1718/1812 5000 BR SCT006 BKN010      PROB40 TEMPO 1800/1809 2000 DZ BR BKN004      BECMG 1810/1812 SCT030      TEMPO 1812/1818 35010KT 6000 SHRA SCT018TCU=